NCAR-RAP Real-Time Weather Data

Output produced by METARs form (23 June 2018  19:37 UTC)
found at http://weather.rap.ucar.edu/surface/
 
RJCM 231100Z 30003KT 9999 -SHRA FEW050 SCT080 BKN100 19/16 Q0997
RJCM 231000Z 36005KT 9999 -SHRA FEW050 SCT080 BKN110 20/15 Q0996
RJCM 230900Z 21010KT 9999 FEW050 SCT110 BKN130 26/10 Q0996
RJCM 230800Z 21010KT 9999 FEW060 SCT110 BKN150 26/11 Q0994
RJCM 230700Z 22012KT 9999 FEW060 SCT150 BKN/// 27/11 Q0994
RJCM 230600Z 22016G28KT 9999 FEW060 SCT100 BKN150 28/10 Q0994
RJCM 230500Z 22012KT 9999 FEW060 SCT110 BKN150 27/11 Q0994
RJCM 230400Z 22016KT 9999 FEW060 SCT150 BKN170 28/12 Q0994
RJCM 230300Z 21017KT 9999 FEW060 SCT140 29/12 Q0994
RJCM 230200Z 21015KT 9999 FEW050 SCT150 BKN160 28/13 Q0995
RJCM 230100Z 20012KT 160V220 9999 FEW050 SCT130 BKN150 26/13 Q0996
RJCM 230000Z 21014KT 9999 FEW040 25/12 Q0997
RJCM 222300Z 21011KT 9999 FEW040 BKN/// 23/12 Q0998
RJCM 222245Z 20010KT 9999 FEW040 BKN/// 22/12 Q0998 RMK 1CU040 A2949
RJCM 221100Z 16003KT 9999 FEW040 BKN070 18/15 Q0998
RJCM 221000Z 04003KT 350V110 9999 FEW040 BKN070 19/15 Q0997
RJCM 220900Z 13003KT 090V200 9999 FEW040 BKN080 19/15 Q0997
RJCM 220800Z VRB02KT 9999 FEW030 SCT070 BKN090 19/16 Q0996
RJCM 220700Z 16005KT 9999 FEW030 SCT050 BKN070 20/15 Q0996
RJCM 220600Z 10003KT 070V140 9999 FEW007 SCT060 BKN080 19/14 Q0996
RJCM 220500Z 03004KT 350V060 9999 -SHRA FEW007 SCT040 BKN050 19/15 Q0996
RJCM 220400Z 13005KT 9999 FEW015 SCT050 BKN060 20/14 Q0996
RJCM 220300Z VRB02KT 9999 -SHRA FEW015 SCT040 BKN060 20/14 Q0996
RJCM 220200Z 22003KT 160V340 9999 -SHRA FEW015 SCT040 BKN070 20/13 Q0996
RJCM 220100Z 15004KT 110V200 9999 -SHRA FEW020 SCT050 BKN100 21/13 Q0996
RJCM 220000Z VRB03KT 9999 FEW030 SCT080 BKN100 21/13 Q0997
RJCM 212300Z 23004KT 190V260 9999 FEW020 SCT080 BKN100 20/14 Q0997
RJCM 212245Z 22004KT 180V290 9999 FEW020 SCT080 BKN090 19/13 Q0997 RMK 1CU020 3AC080 6AC090 A2946
RJCM 211100Z 20003KT 150V290 9999 FEW008 SCT020 BKN025 17/13 Q0998
RJCM 211000Z 18011KT 9999 FEW008 SCT100 BKN150 16/13 Q0996
RJCM 210900Z 19008KT 9999 FEW008 SCT100 17/13 Q0997
RJCM 210800Z 18013KT 9999 FEW010 19/13 Q0996